sensor_id;sensor_type;location;lat;lon;timestamp;temperature;humidity
39677;DHT22;27789;50.840;4.386;2022-12-18T00:01:57;0.10;99.90
39677;DHT22;27789;50.840;4.386;2022-12-18T00:04:25;0.00;99.90
39677;DHT22;27789;50.840;4.386;2022-12-18T00:06:51;0.10;99.90
39677;DHT22;27789;50.840;4.386;2022-12-18T00:09:18;0.00;99.90
39677;DHT22;27789;50.840;4.386;2022-12-18T00:11:43;0.00;99.90
39677;DHT22;27789;50.840;4.386;2022-12-18T00:14:11;0.00;99.90
39677;DHT22;27789;50.840;4.386;2022-12-18T00:16:37;0.00;99.90
39677;DHT22;27789;50.840;4.386;2022-12-18T00:19:03;0.00;99.90
39677;DHT22;27789;50.840;4.386;2022-12-18T00:21:31;0.00;99.90
39677;DHT22;27789;50.840;4.386;2022-12-18T00:23:58;-0.10;99.90
39677;DHT22;27789;50.840;4.386;2022-12-18T00:26:27;-0.10;99.90
39677;DHT22;27789;50.840;4.386;2022-12-18T00:28:54;-0.10;99.90
39677;DHT22;27789;50.840;4.386;2022-12-18T00:31:22;-0.10;99.90
39677;DHT22;27789;50.840;4.386;2022-12-18T00:33:48;-0.10;99.90
39677;DHT22;27789;50.840;4.386;2022-12-18T00:36:16;-0.10;99.90
39677;DHT22;27789;50.840;4.386;2022-12-18T00:38:42;-0.20;99.90
39677;DHT22;27789;50.840;4.386;2022-12-18T00:41:09;-0.10;99.90
39677;DHT22;27789;50.840;4.386;2022-12-18T00:43:36;-0.20;99.90
39677;DHT22;27789;50.840;4.386;2022-12-18T00:46:02;-0.20;99.90
39677;DHT22;27789;50.840;4.386;2022-12-18T00:48:27;-0.30;99.90
39677;DHT22;27789;50.840;4.386;2022-12-18T00:50:53;-0.30;99.90
39677;DHT22;27789;50.840;4.386;2022-12-18T00:53:18;-0.30;99.90
39677;DHT22;27789;50.840;4.386;2022-12-18T00:55:45;-0.30;99.90
39677;DHT22;27789;50.840;4.386;2022-12-18T00:58:12;-0.30;99.90
39677;DHT22;27789;50.840;4.386;2022-12-18T01:00:38;-0.20;99.90
39677;DHT22;27789;50.840;4.386;2022-12-18T01:03:04;-0.20;99.90
39677;DHT22;27789;50.840;4.386;2022-12-18T01:05:30;-0.30;99.90
39677;DHT22;27789;50.840;4.386;2022-12-18T01:07:56;-0.30;99.90
39677;DHT22;27789;50.840;4.386;2022-12-18T01:10:22;-0.30;99.90
39677;DHT22;27789;50.840;4.386;2022-12-18T01:12:48;-0.30;99.90
39677;DHT22;27789;50.840;4.386;2022-12-18T01:15:15;-0.30;99.90
39677;DHT22;27789;50.840;4.386;2022-12-18T01:17:42;-0.30;99.90
39677;DHT22;27789;50.840;4.386;2022-12-18T01:20:08;-0.30;99.90
39677;DHT22;27789;50.840;4.386;2022-12-18T01:22:35;-0.30;99.90
39677;DHT22;27789;50.840;4.386;2022-12-18T01:25:01;-0.30;99.90
39677;DHT22;27789;50.840;4.386;2022-12-18T01:27:26;-0.30;99.90
39677;DHT22;27789;50.840;4.386;2022-12-18T01:29:52;-0.30;99.90
39677;DHT22;27789;50.840;4.386;2022-12-18T01:32:18;-0.30;99.90
39677;DHT22;27789;50.840;4.386;2022-12-18T01:34:44;-0.30;99.90
39677;DHT22;27789;50.840;4.386;2022-12-18T01:37:09;-0.30;99.90
39677;DHT22;27789;50.840;4.386;2022-12-18T01:39:36;-0.30;99.90
39677;DHT22;27789;50.840;4.386;2022-12-18T01:42:19;-0.40;99.90
39677;DHT22;27789;50.840;4.386;2022-12-18T01:50:11;-0.40;99.90
39677;DHT22;27789;50.840;4.386;2022-12-18T01:52:38;-0.40;99.90
39677;DHT22;27789;50.840;4.386;2022-12-18T01:55:07;-0.40;99.90
39677;DHT22;27789;50.840;4.386;2022-12-18T01:57:33;-0.50;99.90
39677;DHT22;27789;50.840;4.386;2022-12-18T02:00:03;-0.50;99.90
39677;DHT22;27789;50.840;4.386;2022-12-18T02:02:30;-0.50;99.90
39677;DHT22;27789;50.840;4.386;2022-12-18T02:04:56;-0.50;99.90
39677;DHT22;27789;50.840;4.386;2022-12-18T02:15:40;-0.50;99.90
39677;DHT22;27789;50.840;4.386;2022-12-18T02:18:22;-0.50;99.90
39677;DHT22;27789;50.840;4.386;2022-12-18T02:20:55;-0.50;99.90
39677;DHT22;27789;50.840;4.386;2022-12-18T02:23:56;-0.40;99.90
39677;DHT22;27789;50.840;4.386;2022-12-18T02:26:29;-0.50;99.90
39677;DHT22;27789;50.840;4.386;2022-12-18T02:29:02;-0.50;99.90
39677;DHT22;27789;50.840;4.386;2022-12-18T02:31:35;-0.50;99.90
39677;DHT22;27789;50.840;4.386;2022-12-18T02:34:04;-0.50;99.90
39677;DHT22;27789;50.840;4.386;2022-12-18T02:36:31;-0.50;99.90
39677;DHT22;27789;50.840;4.386;2022-12-18T02:38:58;-0.50;99.90
39677;DHT22;27789;50.840;4.386;2022-12-18T02:41:25;-0.60;99.90
39677;DHT22;27789;50.840;4.386;2022-12-18T02:44:00;-0.50;99.90
39677;DHT22;27789;50.840;4.386;2022-12-18T02:49:27;-0.50;99.90
39677;DHT22;27789;50.840;4.386;2022-12-18T02:52:01;-0.60;99.90
39677;DHT22;27789;50.840;4.386;2022-12-18T02:54:42;-0.60;99.90
39677;DHT22;27789;50.840;4.386;2022-12-18T02:57:18;-0.60;99.90
39677;DHT22;27789;50.840;4.386;2022-12-18T02:59:56;-0.60;99.90
39677;DHT22;27789;50.840;4.386;2022-12-18T03:02:29;-0.60;99.90
39677;DHT22;27789;50.840;4.386;2022-12-18T03:07:46;-0.70;99.90
39677;DHT22;27789;50.840;4.386;2022-12-18T03:10:18;-0.70;99.90
39677;DHT22;27789;50.840;4.386;2022-12-18T03:13:16;-0.70;99.90
39677;DHT22;27789;50.840;4.386;2022-12-18T03:15:49;-0.80;99.90
39677;DHT22;27789;50.840;4.386;2022-12-18T03:18:46;-0.80;99.90
39677;DHT22;27789;50.840;4.386;2022-12-18T03:21:10;-0.80;99.90
39677;DHT22;27789;50.840;4.386;2022-12-18T03:23:47;-0.90;99.90
39677;DHT22;27789;50.840;4.386;2022-12-18T03:26:16;-0.90;99.90
39677;DHT22;27789;50.840;4.386;2022-12-18T03:28:51;-1.00;99.90
39677;DHT22;27789;50.840;4.386;2022-12-18T03:31:19;-1.00;99.90
39677;DHT22;27789;50.840;4.386;2022-12-18T03:33:54;-1.10;99.90
39677;DHT22;27789;50.840;4.386;2022-12-18T03:36:20;-1.10;99.90
39677;DHT22;27789;50.840;4.386;2022-12-18T03:38:45;-1.10;99.90
39677;DHT22;27789;50.840;4.386;2022-12-18T03:51:50;-1.00;99.90
39677;DHT22;27789;50.840;4.386;2022-12-18T03:54:17;-1.10;99.90
39677;DHT22;27789;50.840;4.386;2022-12-18T03:56:48;-1.10;99.90
39677;DHT22;27789;50.840;4.386;2022-12-18T03:59:16;-1.20;99.90
39677;DHT22;27789;50.840;4.386;2022-12-18T04:01:46;-1.10;99.90
39677;DHT22;27789;50.840;4.386;2022-12-18T04:04:14;-1.10;99.90
39677;DHT22;27789;50.840;4.386;2022-12-18T04:06:42;-1.10;99.90
39677;DHT22;27789;50.840;4.386;2022-12-18T04:09:09;-1.20;99.90
39677;DHT22;27789;50.840;4.386;2022-12-18T04:11:35;-1.20;99.90
39677;DHT22;27789;50.840;4.386;2022-12-18T04:14:00;-1.30;99.90
39677;DHT22;27789;50.840;4.386;2022-12-18T04:16:27;-1.30;99.90
39677;DHT22;27789;50.840;4.386;2022-12-18T04:18:53;-1.30;99.90
39677;DHT22;27789;50.840;4.386;2022-12-18T04:21:19;-1.30;99.90
39677;DHT22;27789;50.840;4.386;2022-12-18T04:23:45;-1.40;99.90
39677;DHT22;27789;50.840;4.386;2022-12-18T04:26:11;-1.30;99.90
39677;DHT22;27789;50.840;4.386;2022-12-18T04:28:37;-1.30;99.90
39677;DHT22;27789;50.840;4.386;2022-12-18T04:31:02;-1.30;99.90
39677;DHT22;27789;50.840;4.386;2022-12-18T04:33:28;-1.30;99.90
39677;DHT22;27789;50.840;4.386;2022-12-18T04:35:54;-1.30;99.90
39677;DHT22;27789;50.840;4.386;2022-12-18T04:38:19;-1.40;99.90
39677;DHT22;27789;50.840;4.386;2022-12-18T04:40:45;-1.40;99.90
39677;DHT22;27789;50.840;4.386;2022-12-18T04:43:10;-1.40;99.90
39677;DHT22;27789;50.840;4.386;2022-12-18T04:45:36;-1.40;99.90
39677;DHT22;27789;50.840;4.386;2022-12-18T04:48:02;-1.40;99.90
39677;DHT22;27789;50.840;4.386;2022-12-18T04:50:28;-1.40;99.90
39677;DHT22;27789;50.840;4.386;2022-12-18T04:52:55;-1.40;99.90
39677;DHT22;27789;50.840;4.386;2022-12-18T04:55:21;-1.40;99.90
39677;DHT22;27789;50.840;4.386;2022-12-18T04:57:49;-1.40;99.90
39677;DHT22;27789;50.840;4.386;2022-12-18T05:00:15;-1.40;99.90
39677;DHT22;27789;50.840;4.386;2022-12-18T05:02:41;-1.40;99.90
39677;DHT22;27789;50.840;4.386;2022-12-18T05:05:07;-1.40;99.90
39677;DHT22;27789;50.840;4.386;2022-12-18T05:07:33;-1.40;99.90
39677;DHT22;27789;50.840;4.386;2022-12-18T05:09:58;-1.40;99.90
39677;DHT22;27789;50.840;4.386;2022-12-18T05:12:24;-1.40;99.90
39677;DHT22;27789;50.840;4.386;2022-12-18T05:14:49;-1.40;99.90
39677;DHT22;27789;50.840;4.386;2022-12-18T05:17:15;-1.40;99.90
39677;DHT22;27789;50.840;4.386;2022-12-18T05:19:41;-1.40;99.90
39677;DHT22;27789;50.840;4.386;2022-12-18T05:22:07;-1.40;99.90
39677;DHT22;27789;50.840;4.386;2022-12-18T05:24:32;-1.50;99.90
39677;DHT22;27789;50.840;4.386;2022-12-18T05:26:58;-1.50;99.90
39677;DHT22;27789;50.840;4.386;2022-12-18T05:29:24;-1.50;99.90
39677;DHT22;27789;50.840;4.386;2022-12-18T05:31:49;-1.50;99.90
39677;DHT22;27789;50.840;4.386;2022-12-18T05:34:15;-1.50;99.90
39677;DHT22;27789;50.840;4.386;2022-12-18T05:36:40;-1.50;99.90
39677;DHT22;27789;50.840;4.386;2022-12-18T05:39:06;-1.50;99.90
39677;DHT22;27789;50.840;4.386;2022-12-18T05:41:32;-1.50;99.90
39677;DHT22;27789;50.840;4.386;2022-12-18T05:43:58;-1.50;99.90
39677;DHT22;27789;50.840;4.386;2022-12-18T05:46:24;-1.50;99.90
39677;DHT22;27789;50.840;4.386;2022-12-18T05:48:50;-1.50;99.90
39677;DHT22;27789;50.840;4.386;2022-12-18T05:51:18;-1.50;99.90
39677;DHT22;27789;50.840;4.386;2022-12-18T05:53:44;-1.50;99.90
39677;DHT22;27789;50.840;4.386;2022-12-18T05:56:13;-1.50;99.90
39677;DHT22;27789;50.840;4.386;2022-12-18T05:58:40;-1.50;99.90
39677;DHT22;27789;50.840;4.386;2022-12-18T06:01:08;-1.40;99.90
39677;DHT22;27789;50.840;4.386;2022-12-18T06:03:34;-1.40;99.90
39677;DHT22;27789;50.840;4.386;2022-12-18T06:06:00;-1.30;99.90
39677;DHT22;27789;50.840;4.386;2022-12-18T06:08:25;-1.30;99.90
39677;DHT22;27789;50.840;4.386;2022-12-18T06:10:52;-1.30;99.90
39677;DHT22;27789;50.840;4.386;2022-12-18T06:13:18;-1.30;99.90
39677;DHT22;27789;50.840;4.386;2022-12-18T06:15:44;-1.30;99.90
39677;DHT22;27789;50.840;4.386;2022-12-18T06:18:10;-1.30;99.90
39677;DHT22;27789;50.840;4.386;2022-12-18T06:20:35;-1.30;99.90
39677;DHT22;27789;50.840;4.386;2022-12-18T06:23:02;-1.30;99.90
39677;DHT22;27789;50.840;4.386;2022-12-18T06:25:28;-1.30;99.90
39677;DHT22;27789;50.840;4.386;2022-12-18T06:27:54;-1.30;99.90
39677;DHT22;27789;50.840;4.386;2022-12-18T06:30:20;-1.30;99.90
39677;DHT22;27789;50.840;4.386;2022-12-18T06:32:47;-1.30;99.90
39677;DHT22;27789;50.840;4.386;2022-12-18T06:35:12;-1.20;99.90
39677;DHT22;27789;50.840;4.386;2022-12-18T06:37:38;-1.30;99.90
39677;DHT22;27789;50.840;4.386;2022-12-18T06:40:04;-1.20;99.90
39677;DHT22;27789;50.840;4.386;2022-12-18T06:42:30;-1.30;99.90
39677;DHT22;27789;50.840;4.386;2022-12-18T06:44:55;-1.20;99.90
39677;DHT22;27789;50.840;4.386;2022-12-18T06:47:21;-1.20;99.90
39677;DHT22;27789;50.840;4.386;2022-12-18T06:49:47;-1.20;99.90
39677;DHT22;27789;50.840;4.386;2022-12-18T06:52:12;-1.20;99.90
39677;DHT22;27789;50.840;4.386;2022-12-18T06:54:38;-1.10;99.90
39677;DHT22;27789;50.840;4.386;2022-12-18T06:57:03;-1.20;99.90
39677;DHT22;27789;50.840;4.386;2022-12-18T06:59:29;-1.20;99.90
39677;DHT22;27789;50.840;4.386;2022-12-18T07:01:54;-1.20;99.90
39677;DHT22;27789;50.840;4.386;2022-12-18T07:04:20;-1.20;99.90
39677;DHT22;27789;50.840;4.386;2022-12-18T07:06:46;-1.20;99.90
39677;DHT22;27789;50.840;4.386;2022-12-18T07:09:12;-1.20;99.90
39677;DHT22;27789;50.840;4.386;2022-12-18T07:11:37;-1.20;99.90
39677;DHT22;27789;50.840;4.386;2022-12-18T07:14:03;-1.20;99.90
39677;DHT22;27789;50.840;4.386;2022-12-18T07:16:28;-1.20;99.90
39677;DHT22;27789;50.840;4.386;2022-12-18T07:18:55;-1.20;99.90
39677;DHT22;27789;50.840;4.386;2022-12-18T07:21:21;-1.20;99.90
39677;DHT22;27789;50.840;4.386;2022-12-18T07:23:47;-1.20;99.90
39677;DHT22;27789;50.840;4.386;2022-12-18T07:26:15;-1.20;99.90
39677;DHT22;27789;50.840;4.386;2022-12-18T07:28:41;-1.20;99.90
39677;DHT22;27789;50.840;4.386;2022-12-18T07:31:12;-1.20;99.90
39677;DHT22;27789;50.840;4.386;2022-12-18T07:33:38;-1.20;99.90
39677;DHT22;27789;50.840;4.386;2022-12-18T07:36:05;-1.20;99.90
39677;DHT22;27789;50.840;4.386;2022-12-18T07:38:33;-1.20;99.90
39677;DHT22;27789;50.840;4.386;2022-12-18T07:41:06;-1.20;99.90
39677;DHT22;27789;50.840;4.386;2022-12-18T07:43:33;-1.20;99.90
39677;DHT22;27789;50.840;4.386;2022-12-18T07:45:58;-1.20;99.90
39677;DHT22;27789;50.840;4.386;2022-12-18T07:48:25;-1.10;99.90
39677;DHT22;27789;50.840;4.386;2022-12-18T07:50:50;-1.10;99.90
39677;DHT22;27789;50.840;4.386;2022-12-18T07:53:16;-1.10;99.90
39677;DHT22;27789;50.840;4.386;2022-12-18T07:55:42;-1.10;99.90
39677;DHT22;27789;50.840;4.386;2022-12-18T07:58:08;-1.10;99.90
39677;DHT22;27789;50.840;4.386;2022-12-18T08:00:34;-1.10;99.90
39677;DHT22;27789;50.840;4.386;2022-12-18T08:03:00;-1.10;99.90
39677;DHT22;27789;50.840;4.386;2022-12-18T08:05:26;-1.10;99.90
39677;DHT22;27789;50.840;4.386;2022-12-18T08:07:51;-1.10;99.90
39677;DHT22;27789;50.840;4.386;2022-12-18T08:10:17;-1.00;99.90
39677;DHT22;27789;50.840;4.386;2022-12-18T08:12:43;-1.00;99.90
39677;DHT22;27789;50.840;4.386;2022-12-18T08:15:09;-1.00;99.90
39677;DHT22;27789;50.840;4.386;2022-12-18T08:17:34;-0.90;99.90
39677;DHT22;27789;50.840;4.386;2022-12-18T08:20:00;-0.80;99.90
39677;DHT22;27789;50.840;4.386;2022-12-18T08:22:25;-0.80;99.90
39677;DHT22;27789;50.840;4.386;2022-12-18T08:24:52;-0.70;99.90
39677;DHT22;27789;50.840;4.386;2022-12-18T08:27:17;-0.60;99.90
39677;DHT22;27789;50.840;4.386;2022-12-18T08:29:43;-0.60;99.90
39677;DHT22;27789;50.840;4.386;2022-12-18T08:32:10;-0.50;99.90
39677;DHT22;27789;50.840;4.386;2022-12-18T08:34:35;-0.50;99.90
39677;DHT22;27789;50.840;4.386;2022-12-18T08:37:01;-0.50;99.90
39677;DHT22;27789;50.840;4.386;2022-12-18T08:39:26;-0.50;99.90
39677;DHT22;27789;50.840;4.386;2022-12-18T08:41:52;-0.40;99.90
39677;DHT22;27789;50.840;4.386;2022-12-18T08:44:29;-0.30;99.90
39677;DHT22;27789;50.840;4.386;2022-12-18T08:47:06;-0.30;99.90
39677;DHT22;27789;50.840;4.386;2022-12-18T08:49:33;-0.30;99.90
39677;DHT22;27789;50.840;4.386;2022-12-18T08:51:58;-0.20;99.90
39677;DHT22;27789;50.840;4.386;2022-12-18T08:54:24;-0.10;99.90
39677;DHT22;27789;50.840;4.386;2022-12-18T08:56:50;0.00;99.90
39677;DHT22;27789;50.840;4.386;2022-12-18T08:59:17;0.10;99.90
39677;DHT22;27789;50.840;4.386;2022-12-18T09:01:43;0.00;99.90
39677;DHT22;27789;50.840;4.386;2022-12-18T09:04:09;0.00;99.90
39677;DHT22;27789;50.840;4.386;2022-12-18T09:06:35;0.10;99.90
39677;DHT22;27789;50.840;4.386;2022-12-18T09:09:03;0.10;99.90
39677;DHT22;27789;50.840;4.386;2022-12-18T09:11:30;0.20;99.90
39677;DHT22;27789;50.840;4.386;2022-12-18T09:13:57;0.30;99.90
39677;DHT22;27789;50.840;4.386;2022-12-18T09:16:24;0.40;99.90
39677;DHT22;27789;50.840;4.386;2022-12-18T09:18:50;0.50;99.90
39677;DHT22;27789;50.840;4.386;2022-12-18T09:21:18;0.50;99.90
39677;DHT22;27789;50.840;4.386;2022-12-18T09:23:52;0.50;99.90
39677;DHT22;27789;50.840;4.386;2022-12-18T09:26:18;0.40;99.90
39677;DHT22;27789;50.840;4.386;2022-12-18T09:28:43;0.40;99.90
39677;DHT22;27789;50.840;4.386;2022-12-18T09:31:11;0.40;99.90
39677;DHT22;27789;50.840;4.386;2022-12-18T09:33:37;0.30;99.90
39677;DHT22;27789;50.840;4.386;2022-12-18T09:36:05;0.30;99.90
39677;DHT22;27789;50.840;4.386;2022-12-18T09:38:32;0.20;99.90
39677;DHT22;27789;50.840;4.386;2022-12-18T09:41:03;0.10;99.90
39677;DHT22;27789;50.840;4.386;2022-12-18T09:43:33;0.10;99.90
39677;DHT22;27789;50.840;4.386;2022-12-18T09:46:05;0.20;99.90
39677;DHT22;27789;50.840;4.386;2022-12-18T09:48:35;0.20;99.90
39677;DHT22;27789;50.840;4.386;2022-12-18T09:51:20;0.20;99.90
39677;DHT22;27789;50.840;4.386;2022-12-18T09:53:53;0.20;99.90
39677;DHT22;27789;50.840;4.386;2022-12-18T09:56:22;0.20;99.90
39677;DHT22;27789;50.840;4.386;2022-12-18T09:59:01;0.20;99.90
39677;DHT22;27789;50.840;4.386;2022-12-18T10:01:29;0.20;99.90
39677;DHT22;27789;50.840;4.386;2022-12-18T10:03:55;0.30;99.90
39677;DHT22;27789;50.840;4.386;2022-12-18T10:12:11;0.60;99.90
39677;DHT22;27789;50.840;4.386;2022-12-18T10:19:54;0.80;99.90
39677;DHT22;27789;50.840;4.386;2022-12-18T10:25:26;0.80;99.90
39677;DHT22;27789;50.840;4.386;2022-12-18T10:27:58;0.80;99.90
39677;DHT22;27789;50.840;4.386;2022-12-18T10:30:26;0.80;99.90
39677;DHT22;27789;50.840;4.386;2022-12-18T10:32:51;1.60;99.90
39677;DHT22;27789;50.840;4.386;2022-12-18T10:35:25;0.90;99.90
39677;DHT22;27789;50.840;4.386;2022-12-18T10:43:20;1.00;99.90
39677;DHT22;27789;50.840;4.386;2022-12-18T10:48:50;1.00;99.90
39677;DHT22;27789;50.840;4.386;2022-12-18T10:51:29;1.00;99.90
39677;DHT22;27789;50.840;4.386;2022-12-18T10:54:13;1.00;99.90
39677;DHT22;27789;50.840;4.386;2022-12-18T10:56:40;1.10;99.90
39677;DHT22;27789;50.840;4.386;2022-12-18T10:59:08;1.10;99.90
39677;DHT22;27789;50.840;4.386;2022-12-18T11:01:52;1.20;99.90
39677;DHT22;27789;50.840;4.386;2022-12-18T11:04:21;1.30;99.90
39677;DHT22;27789;50.840;4.386;2022-12-18T11:06:59;1.40;99.90
39677;DHT22;27789;50.840;4.386;2022-12-18T11:09:31;1.40;99.90
39677;DHT22;27789;50.840;4.386;2022-12-18T11:12:04;1.60;99.90
39677;DHT22;27789;50.840;4.386;2022-12-18T11:14:34;1.70;99.90
39677;DHT22;27789;50.840;4.386;2022-12-18T11:17:01;1.70;99.90
39677;DHT22;27789;50.840;4.386;2022-12-18T11:19:35;1.80;99.90
39677;DHT22;27789;50.840;4.386;2022-12-18T11:22:18;1.80;99.90
39677;DHT22;27789;50.840;4.386;2022-12-18T11:25:25;1.90;99.90
39677;DHT22;27789;50.840;4.386;2022-12-18T11:27:57;1.90;99.90
39677;DHT22;27789;50.840;4.386;2022-12-18T11:30:29;1.90;99.90
39677;DHT22;27789;50.840;4.386;2022-12-18T11:32:56;1.90;99.90
39677;DHT22;27789;50.840;4.386;2022-12-18T11:35:34;1.90;99.80
39677;DHT22;27789;50.840;4.386;2022-12-18T11:38:40;1.90;99.90
39677;DHT22;27789;50.840;4.386;2022-12-18T11:43:42;2.00;99.90
39677;DHT22;27789;50.840;4.386;2022-12-18T11:46:34;2.10;99.80
39677;DHT22;27789;50.840;4.386;2022-12-18T11:49:03;2.20;99.50
39677;DHT22;27789;50.840;4.386;2022-12-18T11:51:38;2.20;99.30
39677;DHT22;27789;50.840;4.386;2022-12-18T11:54:13;2.20;99.20
39677;DHT22;27789;50.840;4.386;2022-12-18T12:24:10;2.30;99.60
39677;DHT22;27789;50.840;4.386;2022-12-18T12:39:47;2.50;99.70
39677;DHT22;27789;50.840;4.386;2022-12-18T12:45:28;2.60;99.50
39677;DHT22;27789;50.840;4.386;2022-12-18T12:47:57;2.50;99.60
39677;DHT22;27789;50.840;4.386;2022-12-18T12:50:23;2.50;99.70
39677;DHT22;27789;50.840;4.386;2022-12-18T12:52:52;2.50;99.70
39677;DHT22;27789;50.840;4.386;2022-12-18T12:55:22;2.50;99.60
39677;DHT22;27789;50.840;4.386;2022-12-18T13:00:22;2.40;99.50
39677;DHT22;27789;50.840;4.386;2022-12-18T13:02:56;2.40;99.60
39677;DHT22;27789;50.840;4.386;2022-12-18T13:05:34;2.40;99.70
39677;DHT22;27789;50.840;4.386;2022-12-18T13:08:12;2.50;99.60
39677;DHT22;27789;50.840;4.386;2022-12-18T13:10:46;2.50;99.50
39677;DHT22;27789;50.840;4.386;2022-12-18T13:13:13;2.50;99.70
39677;DHT22;27789;50.840;4.386;2022-12-18T13:20:47;2.60;99.70
39677;DHT22;27789;50.840;4.386;2022-12-18T13:31:14;2.40;99.90
39677;DHT22;27789;50.840;4.386;2022-12-18T13:33:46;2.40;99.90
39677;DHT22;27789;50.840;4.386;2022-12-18T13:41:36;2.40;99.90
39677;DHT22;27789;50.840;4.386;2022-12-18T13:44:21;2.50;99.90
39677;DHT22;27789;50.840;4.386;2022-12-18T13:46:50;2.50;99.90
39677;DHT22;27789;50.840;4.386;2022-12-18T13:49:35;2.60;99.90
39677;DHT22;27789;50.840;4.386;2022-12-18T13:52:03;2.60;99.90
39677;DHT22;27789;50.840;4.386;2022-12-18T13:54:42;2.50;99.90
39677;DHT22;27789;50.840;4.386;2022-12-18T13:59:56;2.50;99.90
39677;DHT22;27789;50.840;4.386;2022-12-18T14:02:24;2.40;99.90
39677;DHT22;27789;50.840;4.386;2022-12-18T14:04:51;2.40;99.90
39677;DHT22;27789;50.840;4.386;2022-12-18T14:07:37;2.40;99.90
39677;DHT22;27789;50.840;4.386;2022-12-18T14:10:03;2.30;99.90
39677;DHT22;27789;50.840;4.386;2022-12-18T14:12:33;2.30;99.90
39677;DHT22;27789;50.840;4.386;2022-12-18T14:15:40;2.40;99.90
39677;DHT22;27789;50.840;4.386;2022-12-18T14:18:19;2.30;99.90
39677;DHT22;27789;50.840;4.386;2022-12-18T14:20:47;2.30;99.90
39677;DHT22;27789;50.840;4.386;2022-12-18T14:26:27;2.20;99.90
39677;DHT22;27789;50.840;4.386;2022-12-18T14:28:58;2.30;99.90
39677;DHT22;27789;50.840;4.386;2022-12-18T14:31:28;2.30;99.90
39677;DHT22;27789;50.840;4.386;2022-12-18T14:33:54;2.30;99.90
39677;DHT22;27789;50.840;4.386;2022-12-18T14:36:28;2.40;99.90
39677;DHT22;27789;50.840;4.386;2022-12-18T14:38:57;2.40;99.90
39677;DHT22;27789;50.840;4.386;2022-12-18T14:41:24;2.40;99.90
39677;DHT22;27789;50.840;4.386;2022-12-18T14:43:52;2.50;99.90
39677;DHT22;27789;50.840;4.386;2022-12-18T14:48:58;2.40;99.90
39677;DHT22;27789;50.840;4.386;2022-12-18T14:51:27;2.40;99.90
39677;DHT22;27789;50.840;4.386;2022-12-18T14:53:55;2.40;99.90
39677;DHT22;27789;50.840;4.386;2022-12-18T14:56:22;2.40;99.90
39677;DHT22;27789;50.840;4.386;2022-12-18T15:01:20;2.50;99.90
39677;DHT22;27789;50.840;4.386;2022-12-18T15:03:48;2.50;99.90
39677;DHT22;27789;50.840;4.386;2022-12-18T15:06:29;2.60;99.90
39677;DHT22;27789;50.840;4.386;2022-12-18T15:08:56;2.60;99.90
39677;DHT22;27789;50.840;4.386;2022-12-18T15:11:27;2.60;99.90
39677;DHT22;27789;50.840;4.386;2022-12-18T15:13:53;2.50;99.90
39677;DHT22;27789;50.840;4.386;2022-12-18T15:16:18;2.50;99.90
39677;DHT22;27789;50.840;4.386;2022-12-18T15:18:44;2.50;99.90
39677;DHT22;27789;50.840;4.386;2022-12-18T15:21:11;2.60;99.90
39677;DHT22;27789;50.840;4.386;2022-12-18T15:26:14;2.70;99.90
39677;DHT22;27789;50.840;4.386;2022-12-18T15:28:51;2.70;99.90
39677;DHT22;27789;50.840;4.386;2022-12-18T15:31:29;2.70;99.90
39677;DHT22;27789;50.840;4.386;2022-12-18T15:36:23;2.60;99.90
39677;DHT22;27789;50.840;4.386;2022-12-18T15:38:49;2.70;99.90
39677;DHT22;27789;50.840;4.386;2022-12-18T15:41:18;2.70;99.90
39677;DHT22;27789;50.840;4.386;2022-12-18T15:43:45;2.70;99.90
39677;DHT22;27789;50.840;4.386;2022-12-18T15:46:16;2.60;99.90
39677;DHT22;27789;50.840;4.386;2022-12-18T15:48:43;2.70;99.90
39677;DHT22;27789;50.840;4.386;2022-12-18T15:53:55;2.60;99.90
39677;DHT22;27789;50.840;4.386;2022-12-18T15:56:22;2.60;99.90
39677;DHT22;27789;50.840;4.386;2022-12-18T15:59:02;2.60;99.90
39677;DHT22;27789;50.840;4.386;2022-12-18T16:01:30;2.50;99.90
39677;DHT22;27789;50.840;4.386;2022-12-18T16:03:56;2.50;99.90
39677;DHT22;27789;50.840;4.386;2022-12-18T16:06:22;2.50;99.90
39677;DHT22;27789;50.840;4.386;2022-12-18T16:08:48;2.60;99.60
39677;DHT22;27789;50.840;4.386;2022-12-18T16:11:25;2.60;99.50
39677;DHT22;27789;50.840;4.386;2022-12-18T16:14:01;2.60;99.60
39677;DHT22;27789;50.840;4.386;2022-12-18T16:16:27;2.70;99.60
39677;DHT22;27789;50.840;4.386;2022-12-18T16:18:53;2.70;99.40
39677;DHT22;27789;50.840;4.386;2022-12-18T16:21:18;2.70;99.40
39677;DHT22;27789;50.840;4.386;2022-12-18T16:23:44;2.70;99.30
39677;DHT22;27789;50.840;4.386;2022-12-18T16:26:09;2.70;99.40
39677;DHT22;27789;50.840;4.386;2022-12-18T16:28:35;2.70;99.30
39677;DHT22;27789;50.840;4.386;2022-12-18T16:31:00;2.70;99.20
39677;DHT22;27789;50.840;4.386;2022-12-18T16:33:26;2.70;99.40
39677;DHT22;27789;50.840;4.386;2022-12-18T16:35:52;2.70;99.10
39677;DHT22;27789;50.840;4.386;2022-12-18T16:38:18;2.70;99.00
39677;DHT22;27789;50.840;4.386;2022-12-18T16:40:44;2.70;98.80
39677;DHT22;27789;50.840;4.386;2022-12-18T16:43:29;2.70;98.90
39677;DHT22;27789;50.840;4.386;2022-12-18T16:45:55;2.80;98.80
39677;DHT22;27789;50.840;4.386;2022-12-18T16:48:23;2.80;98.90
39677;DHT22;27789;50.840;4.386;2022-12-18T16:50:49;2.70;98.80
39677;DHT22;27789;50.840;4.386;2022-12-18T16:53:14;2.70;98.90
39677;DHT22;27789;50.840;4.386;2022-12-18T16:55:40;2.70;98.80
39677;DHT22;27789;50.840;4.386;2022-12-18T16:58:06;2.70;98.80
39677;DHT22;27789;50.840;4.386;2022-12-18T17:00:31;2.80;98.90
39677;DHT22;27789;50.840;4.386;2022-12-18T17:02:57;2.80;98.90
39677;DHT22;27789;50.840;4.386;2022-12-18T17:05:22;2.80;98.80
39677;DHT22;27789;50.840;4.386;2022-12-18T17:07:48;2.80;98.80
39677;DHT22;27789;50.840;4.386;2022-12-18T17:10:13;2.90;99.00
39677;DHT22;27789;50.840;4.386;2022-12-18T17:12:39;2.90;98.70
39677;DHT22;27789;50.840;4.386;2022-12-18T17:15:05;2.90;98.70
39677;DHT22;27789;50.840;4.386;2022-12-18T17:17:31;3.00;98.90
39677;DHT22;27789;50.840;4.386;2022-12-18T17:19:56;3.00;99.00
39677;DHT22;27789;50.840;4.386;2022-12-18T17:22:22;3.00;99.00
39677;DHT22;27789;50.840;4.386;2022-12-18T17:24:47;3.10;99.10
39677;DHT22;27789;50.840;4.386;2022-12-18T17:27:14;3.10;99.20
39677;DHT22;27789;50.840;4.386;2022-12-18T17:29:39;3.10;99.30
39677;DHT22;27789;50.840;4.386;2022-12-18T17:32:05;3.10;99.40
39677;DHT22;27789;50.840;4.386;2022-12-18T17:34:31;3.10;99.70
39677;DHT22;27789;50.840;4.386;2022-12-18T17:36:56;3.10;99.60
39677;DHT22;27789;50.840;4.386;2022-12-18T17:39:22;3.10;99.80
39677;DHT22;27789;50.840;4.386;2022-12-18T17:41:48;3.10;99.90
39677;DHT22;27789;50.840;4.386;2022-12-18T17:44:14;3.10;99.90
39677;DHT22;27789;50.840;4.386;2022-12-18T17:46:41;3.10;99.90
39677;DHT22;27789;50.840;4.386;2022-12-18T17:49:07;3.10;99.90
39677;DHT22;27789;50.840;4.386;2022-12-18T17:51:32;3.10;99.90
39677;DHT22;27789;50.840;4.386;2022-12-18T17:53:58;3.10;99.90
39677;DHT22;27789;50.840;4.386;2022-12-18T17:56:24;3.00;99.90
39677;DHT22;27789;50.840;4.386;2022-12-18T17:58:49;3.10;99.90
39677;DHT22;27789;50.840;4.386;2022-12-18T18:01:18;3.00;99.90
39677;DHT22;27789;50.840;4.386;2022-12-18T18:03:44;3.00;99.90
39677;DHT22;27789;50.840;4.386;2022-12-18T18:06:10;3.00;99.90